sensor_id;sensor_type;location;lat;lon;timestamp;P1;durP1;ratioP1;P2;durP2;ratioP2
11962;SDS011;62678;52.130;5.584;2024-02-14T00:00:13;11.02;;;9.63;;
11962;SDS011;62678;52.130;5.584;2024-02-14T00:02:43;11.35;;;10.10;;
11962;SDS011;62678;52.130;5.584;2024-02-14T00:05:11;14.05;;;9.65;;
11962;SDS011;62678;52.130;5.584;2024-02-14T00:07:38;11.85;;;10.43;;
11962;SDS011;62678;52.130;5.584;2024-02-14T00:10:05;14.30;;;10.80;;
11962;SDS011;62678;52.130;5.584;2024-02-14T00:12:33;13.10;;;10.43;;
11962;SDS011;62678;52.130;5.584;2024-02-14T00:15:00;12.32;;;10.57;;
11962;SDS011;62678;52.130;5.584;2024-02-14T00:17:28;13.88;;;10.50;;
11962;SDS011;62678;52.130;5.584;2024-02-14T00:19:56;12.27;;;11.07;;
11962;SDS011;62678;52.130;5.584;2024-02-14T00:22:24;13.00;;;11.30;;
11962;SDS011;62678;52.130;5.584;2024-02-14T00:24:51;11.60;;;10.02;;
11962;SDS011;62678;52.130;5.584;2024-02-14T00:27:18;12.32;;;11.02;;
11962;SDS011;62678;52.130;5.584;2024-02-14T00:29:45;12.75;;;10.70;;
11962;SDS011;62678;52.130;5.584;2024-02-14T00:32:13;12.75;;;10.90;;
11962;SDS011;62678;52.130;5.584;2024-02-14T00:34:40;11.88;;;10.30;;
11962;SDS011;62678;52.130;5.584;2024-02-14T00:37:09;14.70;;;12.07;;
11962;SDS011;62678;52.130;5.584;2024-02-14T00:39:36;13.10;;;11.60;;
11962;SDS011;62678;52.130;5.584;2024-02-14T00:42:04;14.07;;;12.55;;
11962;SDS011;62678;52.130;5.584;2024-02-14T00:44:31;15.25;;;12.88;;
11962;SDS011;62678;52.130;5.584;2024-02-14T00:46:58;14.65;;;13.13;;
11962;SDS011;62678;52.130;5.584;2024-02-14T00:49:27;13.88;;;12.57;;
11962;SDS011;62678;52.130;5.584;2024-02-14T00:51:54;14.95;;;13.45;;
11962;SDS011;62678;52.130;5.584;2024-02-14T00:54:24;15.45;;;13.57;;
11962;SDS011;62678;52.130;5.584;2024-02-14T00:56:51;15.27;;;13.68;;
11962;SDS011;62678;52.130;5.584;2024-02-14T00:59:19;16.73;;;14.93;;
11962;SDS011;62678;52.130;5.584;2024-02-14T01:01:46;16.23;;;14.52;;
11962;SDS011;62678;52.130;5.584;2024-02-14T01:04:13;17.33;;;15.43;;
11962;SDS011;62678;52.130;5.584;2024-02-14T01:06:41;17.65;;;15.63;;
11962;SDS011;62678;52.130;5.584;2024-02-14T01:09:09;18.60;;;16.40;;
11962;SDS011;62678;52.130;5.584;2024-02-14T01:11:38;20.40;;;17.95;;
11962;SDS011;62678;52.130;5.584;2024-02-14T01:14:05;20.00;;;17.90;;
11962;SDS011;62678;52.130;5.584;2024-02-14T01:16:33;20.80;;;18.15;;
11962;SDS011;62678;52.130;5.584;2024-02-14T01:19:00;21.25;;;18.38;;
11962;SDS011;62678;52.130;5.584;2024-02-14T01:21:28;20.85;;;18.50;;
11962;SDS011;62678;52.130;5.584;2024-02-14T01:23:55;22.63;;;20.20;;
11962;SDS011;62678;52.130;5.584;2024-02-14T01:26:22;21.75;;;18.42;;
11962;SDS011;62678;52.130;5.584;2024-02-14T01:28:51;23.88;;;19.88;;
11962;SDS011;62678;52.130;5.584;2024-02-14T01:31:18;21.33;;;19.02;;
11962;SDS011;62678;52.130;5.584;2024-02-14T01:33:46;21.90;;;19.50;;
11962;SDS011;62678;52.130;5.584;2024-02-14T01:36:14;24.13;;;20.70;;
11962;SDS011;62678;52.130;5.584;2024-02-14T01:38:42;24.05;;;21.00;;
11962;SDS011;62678;52.130;5.584;2024-02-14T01:41:10;24.67;;;21.10;;
11962;SDS011;62678;52.130;5.584;2024-02-14T01:43:38;25.33;;;21.55;;
11962;SDS011;62678;52.130;5.584;2024-02-14T01:46:07;25.75;;;21.00;;
11962;SDS011;62678;52.130;5.584;2024-02-14T01:48:34;26.35;;;21.88;;
11962;SDS011;62678;52.130;5.584;2024-02-14T01:51:02;27.30;;;22.75;;
11962;SDS011;62678;52.130;5.584;2024-02-14T01:53:32;25.85;;;22.13;;
11962;SDS011;62678;52.130;5.584;2024-02-14T01:56:00;29.88;;;22.40;;
11962;SDS011;62678;52.130;5.584;2024-02-14T01:58:27;29.27;;;22.35;;
11962;SDS011;62678;52.130;5.584;2024-02-14T02:00:55;28.88;;;22.77;;
11962;SDS011;62678;52.130;5.584;2024-02-14T02:03:25;30.35;;;23.83;;
11962;SDS011;62678;52.130;5.584;2024-02-14T02:05:52;29.95;;;23.30;;
11962;SDS011;62678;52.130;5.584;2024-02-14T02:08:20;31.85;;;24.23;;
11962;SDS011;62678;52.130;5.584;2024-02-14T02:10:47;31.88;;;24.00;;
11962;SDS011;62678;52.130;5.584;2024-02-14T02:13:15;30.20;;;23.95;;
11962;SDS011;62678;52.130;5.584;2024-02-14T02:15:43;27.73;;;23.85;;
11962;SDS011;62678;52.130;5.584;2024-02-14T02:18:11;30.25;;;24.25;;
11962;SDS011;62678;52.130;5.584;2024-02-14T02:20:39;26.98;;;22.73;;
11962;SDS011;62678;52.130;5.584;2024-02-14T02:23:10;30.65;;;24.77;;
11962;SDS011;62678;52.130;5.584;2024-02-14T02:25:39;28.25;;;24.05;;
11962;SDS011;62678;52.130;5.584;2024-02-14T02:28:07;28.85;;;23.15;;
11962;SDS011;62678;52.130;5.584;2024-02-14T02:30:35;29.13;;;24.50;;
11962;SDS011;62678;52.130;5.584;2024-02-14T02:33:03;28.38;;;24.95;;
11962;SDS011;62678;52.130;5.584;2024-02-14T02:35:30;27.75;;;24.75;;
11962;SDS011;62678;52.130;5.584;2024-02-14T02:37:58;30.77;;;24.17;;
11962;SDS011;62678;52.130;5.584;2024-02-14T02:40:26;29.05;;;24.00;;
11962;SDS011;62678;52.130;5.584;2024-02-14T02:42:54;30.10;;;23.75;;
11962;SDS011;62678;52.130;5.584;2024-02-14T02:45:21;27.35;;;23.10;;
11962;SDS011;62678;52.130;5.584;2024-02-14T02:47:48;27.35;;;24.08;;
11962;SDS011;62678;52.130;5.584;2024-02-14T02:50:16;26.88;;;22.38;;
11962;SDS011;62678;52.130;5.584;2024-02-14T02:52:44;24.88;;;22.15;;
11962;SDS011;62678;52.130;5.584;2024-02-14T02:55:12;28.40;;;23.55;;
11962;SDS011;62678;52.130;5.584;2024-02-14T02:57:44;26.95;;;22.65;;
11962;SDS011;62678;52.130;5.584;2024-02-14T03:00:12;27.63;;;23.52;;
11962;SDS011;62678;52.130;5.584;2024-02-14T03:02:41;27.75;;;23.80;;
11962;SDS011;62678;52.130;5.584;2024-02-14T03:05:09;28.60;;;24.52;;
11962;SDS011;62678;52.130;5.584;2024-02-14T03:07:43;30.23;;;24.27;;
11962;SDS011;62678;52.130;5.584;2024-02-14T03:10:13;31.40;;;24.60;;
11962;SDS011;62678;52.130;5.584;2024-02-14T03:12:45;27.63;;;24.10;;
11962;SDS011;62678;52.130;5.584;2024-02-14T03:15:13;27.90;;;24.80;;
11962;SDS011;62678;52.130;5.584;2024-02-14T03:17:41;27.35;;;23.20;;
11962;SDS011;62678;52.130;5.584;2024-02-14T03:20:09;25.85;;;22.08;;
11962;SDS011;62678;52.130;5.584;2024-02-14T03:22:37;25.98;;;21.60;;
11962;SDS011;62678;52.130;5.584;2024-02-14T03:25:11;26.25;;;22.35;;
11962;SDS011;62678;52.130;5.584;2024-02-14T03:27:39;28.17;;;23.25;;
11962;SDS011;62678;52.130;5.584;2024-02-14T03:30:09;27.00;;;22.88;;
11962;SDS011;62678;52.130;5.584;2024-02-14T03:32:38;25.77;;;22.73;;
11962;SDS011;62678;52.130;5.584;2024-02-14T03:35:05;30.42;;;25.33;;
11962;SDS011;62678;52.130;5.584;2024-02-14T03:37:32;35.25;;;24.88;;
11962;SDS011;62678;52.130;5.584;2024-02-14T03:40:00;34.47;;;27.70;;
11962;SDS011;62678;52.130;5.584;2024-02-14T03:42:29;35.92;;;28.48;;
11962;SDS011;62678;52.130;5.584;2024-02-14T03:44:56;40.85;;;30.13;;
11962;SDS011;62678;52.130;5.584;2024-02-14T03:47:29;40.85;;;29.88;;
11962;SDS011;62678;52.130;5.584;2024-02-14T03:49:57;40.40;;;31.88;;
11962;SDS011;62678;52.130;5.584;2024-02-14T03:52:24;43.05;;;32.65;;
11962;SDS011;62678;52.130;5.584;2024-02-14T03:54:52;44.83;;;33.53;;
11962;SDS011;62678;52.130;5.584;2024-02-14T03:57:19;47.03;;;34.17;;
11962;SDS011;62678;52.130;5.584;2024-02-14T03:59:47;48.35;;;35.33;;
11962;SDS011;62678;52.130;5.584;2024-02-14T04:02:14;47.17;;;35.97;;
11962;SDS011;62678;52.130;5.584;2024-02-14T04:04:43;48.22;;;34.55;;
11962;SDS011;62678;52.130;5.584;2024-02-14T04:07:11;50.38;;;34.35;;
11962;SDS011;62678;52.130;5.584;2024-02-14T04:09:39;50.55;;;36.03;;
11962;SDS011;62678;52.130;5.584;2024-02-14T04:12:06;50.33;;;35.15;;
11962;SDS011;62678;52.130;5.584;2024-02-14T04:14:35;51.92;;;35.60;;
11962;SDS011;62678;52.130;5.584;2024-02-14T04:17:03;50.30;;;34.50;;
11962;SDS011;62678;52.130;5.584;2024-02-14T04:19:32;50.95;;;33.70;;
11962;SDS011;62678;52.130;5.584;2024-02-14T04:22:01;51.22;;;34.25;;
11962;SDS011;62678;52.130;5.584;2024-02-14T04:24:28;47.40;;;33.80;;
11962;SDS011;62678;52.130;5.584;2024-02-14T04:26:55;49.65;;;33.00;;
11962;SDS011;62678;52.130;5.584;2024-02-14T04:29:22;48.38;;;30.90;;
11962;SDS011;62678;52.130;5.584;2024-02-14T04:31:49;43.53;;;31.45;;
11962;SDS011;62678;52.130;5.584;2024-02-14T04:34:17;49.08;;;32.20;;
11962;SDS011;62678;52.130;5.584;2024-02-14T04:36:44;45.90;;;30.70;;
11962;SDS011;62678;52.130;5.584;2024-02-14T04:39:13;51.45;;;31.40;;
11962;SDS011;62678;52.130;5.584;2024-02-14T04:41:40;45.28;;;31.30;;
11962;SDS011;62678;52.130;5.584;2024-02-14T04:44:07;52.88;;;32.00;;
11962;SDS011;62678;52.130;5.584;2024-02-14T04:46:35;50.75;;;31.08;;
11962;SDS011;62678;52.130;5.584;2024-02-14T04:49:03;44.53;;;31.20;;
11962;SDS011;62678;52.130;5.584;2024-02-14T04:51:30;48.80;;;31.10;;
11962;SDS011;62678;52.130;5.584;2024-02-14T04:53:57;49.05;;;31.80;;
11962;SDS011;62678;52.130;5.584;2024-02-14T04:56:26;49.13;;;32.35;;
11962;SDS011;62678;52.130;5.584;2024-02-14T04:58:53;45.65;;;32.13;;
11962;SDS011;62678;52.130;5.584;2024-02-14T05:01:21;51.13;;;32.30;;
11962;SDS011;62678;52.130;5.584;2024-02-14T05:03:48;45.75;;;31.42;;
11962;SDS011;62678;52.130;5.584;2024-02-14T05:06:16;47.17;;;31.92;;
11962;SDS011;62678;52.130;5.584;2024-02-14T05:08:43;43.95;;;30.45;;
11962;SDS011;62678;52.130;5.584;2024-02-14T05:11:10;43.13;;;31.13;;
11962;SDS011;62678;52.130;5.584;2024-02-14T05:13:38;46.05;;;31.90;;
11962;SDS011;62678;52.130;5.584;2024-02-14T05:16:06;44.33;;;30.80;;
11962;SDS011;62678;52.130;5.584;2024-02-14T05:18:35;45.75;;;29.42;;
11962;SDS011;62678;52.130;5.584;2024-02-14T05:21:04;45.88;;;31.42;;
11962;SDS011;62678;52.130;5.584;2024-02-14T05:23:31;41.53;;;29.60;;
11962;SDS011;62678;52.130;5.584;2024-02-14T05:25:59;48.28;;;30.42;;
11962;SDS011;62678;52.130;5.584;2024-02-14T05:28:27;41.85;;;29.92;;
11962;SDS011;62678;52.130;5.584;2024-02-14T05:30:55;43.63;;;29.92;;
11962;SDS011;62678;52.130;5.584;2024-02-14T05:33:22;40.88;;;29.75;;
11962;SDS011;62678;52.130;5.584;2024-02-14T05:35:50;44.53;;;29.95;;
11962;SDS011;62678;52.130;5.584;2024-02-14T05:38:17;42.05;;;28.88;;
11962;SDS011;62678;52.130;5.584;2024-02-14T05:40:45;39.90;;;28.02;;
11962;SDS011;62678;52.130;5.584;2024-02-14T05:43:12;42.17;;;29.77;;
11962;SDS011;62678;52.130;5.584;2024-02-14T05:45:39;40.00;;;29.40;;
11962;SDS011;62678;52.130;5.584;2024-02-14T05:48:08;41.78;;;29.90;;
11962;SDS011;62678;52.130;5.584;2024-02-14T05:50:35;41.40;;;30.55;;
11962;SDS011;62678;52.130;5.584;2024-02-14T05:53:03;43.50;;;28.55;;
11962;SDS011;62678;52.130;5.584;2024-02-14T05:55:30;41.20;;;29.13;;
11962;SDS011;62678;52.130;5.584;2024-02-14T05:57:58;40.15;;;29.10;;
11962;SDS011;62678;52.130;5.584;2024-02-14T06:00:26;38.35;;;28.98;;
11962;SDS011;62678;52.130;5.584;2024-02-14T06:02:53;38.67;;;29.25;;
11962;SDS011;62678;52.130;5.584;2024-02-14T06:05:21;39.58;;;28.50;;
11962;SDS011;62678;52.130;5.584;2024-02-14T06:07:49;42.58;;;30.55;;
11962;SDS011;62678;52.130;5.584;2024-02-14T06:10:16;38.30;;;28.67;;
11962;SDS011;62678;52.130;5.584;2024-02-14T06:12:44;42.60;;;30.40;;
11962;SDS011;62678;52.130;5.584;2024-02-14T06:15:13;38.65;;;30.52;;
11962;SDS011;62678;52.130;5.584;2024-02-14T06:17:40;38.97;;;30.48;;
11962;SDS011;62678;52.130;5.584;2024-02-14T06:20:07;42.63;;;32.45;;
11962;SDS011;62678;52.130;5.584;2024-02-14T06:22:36;44.70;;;32.80;;
11962;SDS011;62678;52.130;5.584;2024-02-14T06:25:04;39.88;;;32.15;;
11962;SDS011;62678;52.130;5.584;2024-02-14T06:27:31;43.70;;;32.80;;
11962;SDS011;62678;52.130;5.584;2024-02-14T06:29:58;43.47;;;33.15;;
11962;SDS011;62678;52.130;5.584;2024-02-14T06:32:25;46.95;;;34.60;;
11962;SDS011;62678;52.130;5.584;2024-02-14T06:34:53;47.35;;;33.60;;
11962;SDS011;62678;52.130;5.584;2024-02-14T06:37:20;44.00;;;32.72;;
11962;SDS011;62678;52.130;5.584;2024-02-14T06:39:49;43.95;;;31.67;;
11962;SDS011;62678;52.130;5.584;2024-02-14T06:42:17;44.17;;;33.17;;
11962;SDS011;62678;52.130;5.584;2024-02-14T06:44:44;43.80;;;32.75;;
11962;SDS011;62678;52.130;5.584;2024-02-14T06:47:12;40.97;;;31.60;;
11962;SDS011;62678;52.130;5.584;2024-02-14T06:49:40;46.40;;;30.90;;
11962;SDS011;62678;52.130;5.584;2024-02-14T06:52:07;44.60;;;30.95;;
11962;SDS011;62678;52.130;5.584;2024-02-14T06:54:34;41.50;;;30.63;;
11962;SDS011;62678;52.130;5.584;2024-02-14T06:57:04;41.03;;;29.92;;
11962;SDS011;62678;52.130;5.584;2024-02-14T06:59:32;40.85;;;28.45;;
11962;SDS011;62678;52.130;5.584;2024-02-14T07:02:01;43.40;;;28.98;;
11962;SDS011;62678;52.130;5.584;2024-02-14T07:04:29;43.35;;;30.25;;
11962;SDS011;62678;52.130;5.584;2024-02-14T07:06:57;43.10;;;30.55;;
11962;SDS011;62678;52.130;5.584;2024-02-14T07:09:25;44.83;;;30.60;;
11962;SDS011;62678;52.130;5.584;2024-02-14T07:11:53;47.22;;;32.20;;
11962;SDS011;62678;52.130;5.584;2024-02-14T07:14:23;49.25;;;34.22;;
11962;SDS011;62678;52.130;5.584;2024-02-14T07:16:50;54.60;;;36.45;;
11962;SDS011;62678;52.130;5.584;2024-02-14T07:19:18;53.90;;;36.00;;
11962;SDS011;62678;52.130;5.584;2024-02-14T07:21:45;53.33;;;37.42;;
11962;SDS011;62678;52.130;5.584;2024-02-14T07:24:12;70.05;;;47.38;;
11962;SDS011;62678;52.130;5.584;2024-02-14T07:26:40;65.30;;;40.58;;
11962;SDS011;62678;52.130;5.584;2024-02-14T07:29:09;58.85;;;39.50;;
11962;SDS011;62678;52.130;5.584;2024-02-14T07:31:38;57.67;;;37.55;;
11962;SDS011;62678;52.130;5.584;2024-02-14T07:34:06;58.88;;;39.38;;
11962;SDS011;62678;52.130;5.584;2024-02-14T07:36:34;60.30;;;40.70;;
11962;SDS011;62678;52.130;5.584;2024-02-14T07:39:01;58.20;;;38.95;;
11962;SDS011;62678;52.130;5.584;2024-02-14T07:41:28;59.72;;;40.75;;
11962;SDS011;62678;52.130;5.584;2024-02-14T07:43:56;61.80;;;40.03;;
11962;SDS011;62678;52.130;5.584;2024-02-14T07:46:23;62.70;;;39.67;;
11962;SDS011;62678;52.130;5.584;2024-02-14T07:48:53;54.85;;;37.42;;
11962;SDS011;62678;52.130;5.584;2024-02-14T07:51:21;55.72;;;36.95;;
11962;SDS011;62678;52.130;5.584;2024-02-14T07:53:48;50.30;;;35.40;;
11962;SDS011;62678;52.130;5.584;2024-02-14T07:56:16;53.70;;;36.63;;
11962;SDS011;62678;52.130;5.584;2024-02-14T07:58:44;53.65;;;37.10;;
11962;SDS011;62678;52.130;5.584;2024-02-14T08:01:11;52.63;;;37.28;;
11962;SDS011;62678;52.130;5.584;2024-02-14T08:03:40;56.55;;;38.08;;
11962;SDS011;62678;52.130;5.584;2024-02-14T08:06:08;61.22;;;39.30;;
11962;SDS011;62678;52.130;5.584;2024-02-14T08:08:35;56.20;;;38.30;;
11962;SDS011;62678;52.130;5.584;2024-02-14T08:11:03;57.65;;;37.35;;
11962;SDS011;62678;52.130;5.584;2024-02-14T08:13:31;55.95;;;38.28;;
11962;SDS011;62678;52.130;5.584;2024-02-14T08:15:59;55.20;;;37.08;;
11962;SDS011;62678;52.130;5.584;2024-02-14T08:18:27;51.47;;;36.05;;
11962;SDS011;62678;52.130;5.584;2024-02-14T08:20:54;52.65;;;36.45;;
11962;SDS011;62678;52.130;5.584;2024-02-14T08:23:23;51.15;;;36.15;;
11962;SDS011;62678;52.130;5.584;2024-02-14T08:25:51;50.88;;;36.55;;
11962;SDS011;62678;52.130;5.584;2024-02-14T08:28:19;46.97;;;35.17;;
11962;SDS011;62678;52.130;5.584;2024-02-14T08:30:46;51.50;;;36.70;;
11962;SDS011;62678;52.130;5.584;2024-02-14T08:33:14;51.60;;;37.03;;
11962;SDS011;62678;52.130;5.584;2024-02-14T08:35:42;50.05;;;37.03;;
11962;SDS011;62678;52.130;5.584;2024-02-14T08:38:09;52.50;;;37.47;;
11962;SDS011;62678;52.130;5.584;2024-02-14T08:40:38;51.35;;;35.85;;
11962;SDS011;62678;52.130;5.584;2024-02-14T08:43:05;55.25;;;39.88;;
11962;SDS011;62678;52.130;5.584;2024-02-14T08:45:33;57.50;;;39.92;;
11962;SDS011;62678;52.130;5.584;2024-02-14T08:48:00;54.08;;;39.97;;
11962;SDS011;62678;52.130;5.584;2024-02-14T08:50:27;59.40;;;40.83;;
11962;SDS011;62678;52.130;5.584;2024-02-14T08:52:55;53.33;;;39.58;;
11962;SDS011;62678;52.130;5.584;2024-02-14T08:55:23;54.83;;;39.25;;
11962;SDS011;62678;52.130;5.584;2024-02-14T08:57:51;53.90;;;39.83;;
11962;SDS011;62678;52.130;5.584;2024-02-14T09:00:19;52.70;;;37.53;;
11962;SDS011;62678;52.130;5.584;2024-02-14T09:02:47;52.00;;;38.20;;
11962;SDS011;62678;52.130;5.584;2024-02-14T09:05:14;50.38;;;37.67;;
11962;SDS011;62678;52.130;5.584;2024-02-14T09:07:42;48.75;;;37.08;;
11962;SDS011;62678;52.130;5.584;2024-02-14T09:10:09;53.22;;;39.97;;
11962;SDS011;62678;52.130;5.584;2024-02-14T09:12:37;48.80;;;37.88;;
11962;SDS011;62678;52.130;5.584;2024-02-14T09:15:08;43.03;;;34.47;;
11962;SDS011;62678;52.130;5.584;2024-02-14T09:17:36;50.35;;;40.08;;
11962;SDS011;62678;52.130;5.584;2024-02-14T09:20:06;43.67;;;34.50;;
11962;SDS011;62678;52.130;5.584;2024-02-14T09:22:34;42.38;;;35.00;;
11962;SDS011;62678;52.130;5.584;2024-02-14T09:25:01;34.88;;;28.15;;
11962;SDS011;62678;52.130;5.584;2024-02-14T09:27:30;40.10;;;32.63;;
11962;SDS011;62678;52.130;5.584;2024-02-14T09:29:58;38.53;;;29.85;;
11962;SDS011;62678;52.130;5.584;2024-02-14T09:32:26;42.35;;;35.70;;
11962;SDS011;62678;52.130;5.584;2024-02-14T09:34:54;33.28;;;26.95;;
11962;SDS011;62678;52.130;5.584;2024-02-14T09:37:22;32.88;;;26.63;;
11962;SDS011;62678;52.130;5.584;2024-02-14T09:39:49;33.38;;;26.58;;
11962;SDS011;62678;52.130;5.584;2024-02-14T09:42:16;32.28;;;26.65;;
11962;SDS011;62678;52.130;5.584;2024-02-14T09:44:46;33.05;;;26.38;;
11962;SDS011;62678;52.130;5.584;2024-02-14T09:47:17;31.50;;;25.90;;
11962;SDS011;62678;52.130;5.584;2024-02-14T09:49:46;35.05;;;27.05;;
11962;SDS011;62678;52.130;5.584;2024-02-14T09:52:13;30.52;;;25.13;;
11962;SDS011;62678;52.130;5.584;2024-02-14T09:54:41;30.70;;;26.10;;
11962;SDS011;62678;52.130;5.584;2024-02-14T09:57:08;31.58;;;25.15;;
11962;SDS011;62678;52.130;5.584;2024-02-14T09:59:37;28.77;;;23.95;;
11962;SDS011;62678;52.130;5.584;2024-02-14T10:02:04;32.65;;;25.80;;
11962;SDS011;62678;52.130;5.584;2024-02-14T10:04:32;31.92;;;27.13;;
11962;SDS011;62678;52.130;5.584;2024-02-14T10:07:02;35.83;;;28.98;;
11962;SDS011;62678;52.130;5.584;2024-02-14T10:09:30;42.10;;;31.65;;
11962;SDS011;62678;52.130;5.584;2024-02-14T10:11:57;46.55;;;32.90;;
11962;SDS011;62678;52.130;5.584;2024-02-14T10:14:24;43.88;;;34.42;;
11962;SDS011;62678;52.130;5.584;2024-02-14T10:16:51;43.78;;;34.15;;
11962;SDS011;62678;52.130;5.584;2024-02-14T10:19:19;44.72;;;33.60;;
11962;SDS011;62678;52.130;5.584;2024-02-14T10:21:55;42.13;;;33.88;;
11962;SDS011;62678;52.130;5.584;2024-02-14T10:24:25;43.63;;;33.72;;
11962;SDS011;62678;52.130;5.584;2024-02-14T10:26:52;44.67;;;32.35;;
11962;SDS011;62678;52.130;5.584;2024-02-14T10:29:22;41.92;;;31.95;;
11962;SDS011;62678;52.130;5.584;2024-02-14T10:31:50;43.72;;;32.22;;
11962;SDS011;62678;52.130;5.584;2024-02-14T10:34:18;41.95;;;30.65;;
11962;SDS011;62678;52.130;5.584;2024-02-14T10:36:46;39.70;;;31.00;;
11962;SDS011;62678;52.130;5.584;2024-02-14T10:39:16;37.03;;;30.10;;
11962;SDS011;62678;52.130;5.584;2024-02-14T10:41:45;40.15;;;29.45;;
11962;SDS011;62678;52.130;5.584;2024-02-14T10:44:12;36.42;;;28.45;;
11962;SDS011;62678;52.130;5.584;2024-02-14T10:46:40;37.10;;;28.52;;
11962;SDS011;62678;52.130;5.584;2024-02-14T10:49:07;38.35;;;28.98;;
11962;SDS011;62678;52.130;5.584;2024-02-14T10:51:37;38.22;;;28.17;;
11962;SDS011;62678;52.130;5.584;2024-02-14T10:54:08;38.33;;;28.83;;
11962;SDS011;62678;52.130;5.584;2024-02-14T10:56:38;35.83;;;29.10;;
11962;SDS011;62678;52.130;5.584;2024-02-14T10:59:06;37.70;;;28.58;;
11962;SDS011;62678;52.130;5.584;2024-02-14T11:01:35;34.85;;;28.08;;
11962;SDS011;62678;52.130;5.584;2024-02-14T11:04:03;33.80;;;28.48;;
11962;SDS011;62678;52.130;5.584;2024-02-14T11:06:31;36.28;;;27.88;;
11962;SDS011;62678;52.130;5.584;2024-02-14T11:09:00;35.95;;;28.65;;
11962;SDS011;62678;52.130;5.584;2024-02-14T11:11:32;36.97;;;29.13;;
11962;SDS011;62678;52.130;5.584;2024-02-14T11:13:59;34.05;;;26.88;;
11962;SDS011;62678;52.130;5.584;2024-02-14T11:16:28;37.00;;;26.85;;
11962;SDS011;62678;52.130;5.584;2024-02-14T11:19:06;28.65;;;24.83;;
11962;SDS011;62678;52.130;5.584;2024-02-14T11:21:35;28.48;;;25.23;;
11962;SDS011;62678;52.130;5.584;2024-02-14T11:24:06;30.90;;;25.25;;
11962;SDS011;62678;52.130;5.584;2024-02-14T11:26:39;31.80;;;24.27;;
11962;SDS011;62678;52.130;5.584;2024-02-14T11:29:06;27.58;;;23.70;;
11962;SDS011;62678;52.130;5.584;2024-02-14T11:31:36;27.63;;;22.70;;
11962;SDS011;62678;52.130;5.584;2024-02-14T11:34:04;27.98;;;23.33;;
11962;SDS011;62678;52.130;5.584;2024-02-14T11:36:33;31.50;;;27.08;;
11962;SDS011;62678;52.130;5.584;2024-02-14T11:39:02;33.72;;;26.67;;
11962;SDS011;62678;52.130;5.584;2024-02-14T11:41:30;42.05;;;33.08;;
11962;SDS011;62678;52.130;5.584;2024-02-14T11:44:00;35.72;;;28.75;;
11962;SDS011;62678;52.130;5.584;2024-02-14T11:46:29;45.90;;;34.08;;
11962;SDS011;62678;52.130;5.584;2024-02-14T11:48:58;35.47;;;30.15;;
11962;SDS011;62678;52.130;5.584;2024-02-14T11:51:26;30.58;;;25.60;;
11962;SDS011;62678;52.130;5.584;2024-02-14T11:53:53;35.47;;;26.15;;
11962;SDS011;62678;52.130;5.584;2024-02-14T11:56:20;29.58;;;23.88;;
11962;SDS011;62678;52.130;5.584;2024-02-14T11:58:48;28.10;;;23.88;;
11962;SDS011;62678;52.130;5.584;2024-02-14T12:01:16;28.77;;;23.20;;
11962;SDS011;62678;52.130;5.584;2024-02-14T12:03:43;31.85;;;24.75;;
11962;SDS011;62678;52.130;5.584;2024-02-14T12:06:12;26.75;;;22.33;;
11962;SDS011;62678;52.130;5.584;2024-02-14T12:08:40;24.42;;;21.83;;
11962;SDS011;62678;52.130;5.584;2024-02-14T12:11:08;30.50;;;22.48;;
11962;SDS011;62678;52.130;5.584;2024-02-14T12:13:35;26.48;;;21.50;;
11962;SDS011;62678;52.130;5.584;2024-02-14T12:16:08;29.73;;;22.33;;
11962;SDS011;62678;52.130;5.584;2024-02-14T12:18:35;22.90;;;20.13;;
11962;SDS011;62678;52.130;5.584;2024-02-14T12:21:03;25.02;;;20.23;;
11962;SDS011;62678;52.130;5.584;2024-02-14T12:23:34;22.58;;;18.77;;
11962;SDS011;62678;52.130;5.584;2024-02-14T12:26:02;22.90;;;18.70;;
11962;SDS011;62678;52.130;5.584;2024-02-14T12:28:30;20.92;;;18.30;;
11962;SDS011;62678;52.130;5.584;2024-02-14T12:30:57;24.13;;;19.25;;
11962;SDS011;62678;52.130;5.584;2024-02-14T12:33:25;19.55;;;16.83;;
11962;SDS011;62678;52.130;5.584;2024-02-14T12:35:53;21.90;;;19.17;;
11962;SDS011;62678;52.130;5.584;2024-02-14T12:38:21;22.42;;;16.83;;
11962;SDS011;62678;52.130;5.584;2024-02-14T12:40:51;20.13;;;16.75;;
11962;SDS011;62678;52.130;5.584;2024-02-14T12:43:20;18.40;;;16.35;;
11962;SDS011;62678;52.130;5.584;2024-02-14T12:45:47;21.77;;;16.27;;
11962;SDS011;62678;52.130;5.584;2024-02-14T12:48:21;19.77;;;15.55;;
11962;SDS011;62678;52.130;5.584;2024-02-14T12:50:49;18.95;;;16.08;;
11962;SDS011;62678;52.130;5.584;2024-02-14T12:53:17;19.48;;;16.35;;
11962;SDS011;62678;52.130;5.584;2024-02-14T12:55:46;18.35;;;16.30;;
11962;SDS011;62678;52.130;5.584;2024-02-14T12:58:15;20.65;;;16.10;;
11962;SDS011;62678;52.130;5.584;2024-02-14T13:00:42;21.13;;;15.60;;
11962;SDS011;62678;52.130;5.584;2024-02-14T13:03:11;23.20;;;16.73;;
11962;SDS011;62678;52.130;5.584;2024-02-14T13:05:39;23.67;;;19.08;;
11962;SDS011;62678;52.130;5.584;2024-02-14T13:08:06;24.67;;;20.13;;
11962;SDS011;62678;52.130;5.584;2024-02-14T13:10:36;32.50;;;25.63;;
11962;SDS011;62678;52.130;5.584;2024-02-14T13:13:03;20.42;;;17.95;;
11962;SDS011;62678;52.130;5.584;2024-02-14T13:15:32;19.90;;;17.45;;
11962;SDS011;62678;52.130;5.584;2024-02-14T13:17:59;18.85;;;15.80;;
11962;SDS011;62678;52.130;5.584;2024-02-14T13:20:27;16.17;;;13.65;;
11962;SDS011;62678;52.130;5.584;2024-02-14T13:22:55;13.23;;;11.93;;
11962;SDS011;62678;52.130;5.584;2024-02-14T13:25:22;14.65;;;13.25;;
11962;SDS011;62678;52.130;5.584;2024-02-14T13:27:50;15.43;;;13.82;;
11962;SDS011;62678;52.130;5.584;2024-02-14T13:30:19;27.17;;;23.65;;
11962;SDS011;62678;52.130;5.584;2024-02-14T13:32:49;48.78;;;38.38;;
11962;SDS011;62678;52.130;5.584;2024-02-14T13:35:17;17.55;;;15.75;;
11962;SDS011;62678;52.130;5.584;2024-02-14T13:37:44;22.48;;;18.50;;
11962;SDS011;62678;52.130;5.584;2024-02-14T13:40:12;13.68;;;12.27;;
11962;SDS011;62678;52.130;5.584;2024-02-14T13:42:47;14.30;;;11.93;;
11962;SDS011;62678;52.130;5.584;2024-02-14T13:45:23;12.63;;;11.32;;
11962;SDS011;62678;52.130;5.584;2024-02-14T13:48:01;12.15;;;10.93;;
11962;SDS011;62678;52.130;5.584;2024-02-14T13:50:29;12.65;;;11.32;;
11962;SDS011;62678;52.130;5.584;2024-02-14T13:52:56;11.75;;;10.55;;
11962;SDS011;62678;52.130;5.584;2024-02-14T13:55:24;13.00;;;11.70;;
11962;SDS011;62678;52.130;5.584;2024-02-14T13:57:51;12.60;;;11.32;;
11962;SDS011;62678;52.130;5.584;2024-02-14T14:00:18;12.63;;;11.35;;
11962;SDS011;62678;52.130;5.584;2024-02-14T14:02:46;14.80;;;13.32;;
11962;SDS011;62678;52.130;5.584;2024-02-14T14:05:15;14.20;;;12.80;;
11962;SDS011;62678;52.130;5.584;2024-02-14T14:07:43;13.77;;;12.38;;
11962;SDS011;62678;52.130;5.584;2024-02-14T14:10:11;14.25;;;12.80;;
11962;SDS011;62678;52.130;5.584;2024-02-14T14:12:39;14.82;;;13.43;;
11962;SDS011;62678;52.130;5.584;2024-02-14T14:15:06;15.68;;;13.95;;
11962;SDS011;62678;52.130;5.584;2024-02-14T14:17:34;17.77;;;15.15;;
11962;SDS011;62678;52.130;5.584;2024-02-14T14:20:03;17.90;;;16.10;;
11962;SDS011;62678;52.130;5.584;2024-02-14T14:22:34;18.65;;;16.65;;
11962;SDS011;62678;52.130;5.584;2024-02-14T14:25:03;20.30;;;18.17;;